Time;durP1;ratioP1;P1;durP2;ratioP2;P2;SDS_P1;SDS_P2;PMS_P1;PMS_P2;Temp;Humidity;BMP_temperature;BMP_pressure;BME280_temperature;BME280_humidity;BME280_pressure;Samples;Min_cycle;Max_cycle;Signal;HPM_P1;HPM_P2
2022/06/05 00:02:10;;;;;;;2.40;1.95;;;13.60;99.90;;;;;;4989131;28;20501;-73
2022/06/05 00:04:39;;;;;;;3.67;2.00;;;13.60;99.90;;;;;;4983174;28;20053;-73
2022/06/05 00:07:31;;;;;;;3.28;1.90;;;13.50;99.90;;;;;;4967909;28;20074;-73
2022/06/05 00:10:21;;;;;;;2.15;1.65;;;13.50;99.90;;;;;;4980291;28;20088;-73
2022/06/05 00:12:58;;;;;;;1.83;1.65;;;13.50;99.90;;;;;;4974303;28;20050;-73
2022/06/05 00:15:24;;;;;;;3.60;2.35;;;13.50;99.90;;;;;;4980280;28;20153;-74
2022/06/05 00:17:51;;;;;;;2.63;1.98;;;13.40;99.90;;;;;;4978513;28;20173;-73
2022/06/05 00:20:18;;;;;;;3.88;2.65;;;13.30;99.90;;;;;;4970535;28;20069;-73
2022/06/05 00:22:46;;;;;;;3.33;2.22;;;13.30;99.90;;;;;;4963735;28;20058;-73
2022/06/05 00:25:13;;;;;;;3.17;2.03;;;13.30;99.90;;;;;;4944166;28;20628;-73
2022/06/05 00:27:56;;;;;;;3.30;2.00;;;13.30;99.90;;;;;;4960040;28;20585;-73
2022/06/05 00:30:27;;;;;;;3.03;1.83;;;13.30;99.90;;;;;;4960703;28;20089;-73
2022/06/05 00:32:59;;;;;;;2.67;2.00;;;13.30;99.90;;;;;;4944048;28;20145;-73
2022/06/05 00:35:31;;;;;;;2.78;2.10;;;13.30;99.90;;;;;;4956968;28;20399;-73
2022/06/05 00:38:12;;;;;;;2.20;2.00;;;13.30;99.90;;;;;;4959150;28;20088;-72
2022/06/05 00:41:20;;;;;;;2.00;1.50;;;13.30;99.90;;;;;;4960265;28;20077;-73
2022/06/05 00:43:47;;;;;;;2.20;1.77;;;13.30;99.90;;;;;;4960141;28;20142;-73
2022/06/05 00:46:14;;;;;;;3.53;2.25;;;13.20;99.90;;;;;;4960651;28;20050;-73
2022/06/05 00:48:41;;;;;;;3.65;2.38;;;13.20;99.90;;;;;;4960078;28;20407;-73
2022/06/05 00:51:08;;;;;;;2.95;1.60;;;13.20;99.90;;;;;;4960810;28;21504;-73
2022/06/05 00:53:35;;;;;;;2.58;2.05;;;13.30;99.90;;;;;;4961989;28;20054;-73
2022/06/05 00:56:02;;;;;;;2.70;1.65;;;13.30;99.90;;;;;;4961033;28;20074;-73
2022/06/05 00:58:29;;;;;;;1.80;1.50;;;13.20;99.90;;;;;;4959160;28;20043;-73
2022/06/05 01:00:56;;;;;;;3.05;2.20;;;13.20;99.90;;;;;;4961380;28;20271;-73
2022/06/05 01:03:23;;;;;;;3.92;2.00;;;13.20;99.90;;;;;;4963125;28;20125;-73
2022/06/05 01:05:50;;;;;;;3.58;2.00;;;13.10;99.90;;;;;;4963769;28;20062;-73
2022/06/05 01:08:16;;;;;;;2.88;1.88;;;13.10;99.90;;;;;;4954985;28;20096;-73
2022/06/05 01:10:57;;;;;;;3.30;1.95;;;13.10;99.90;;;;;;4964094;28;20074;-73
2022/06/05 01:13:53;;;;;;;2.35;1.48;;;13.00;99.90;;;;;;4963202;28;20651;-73
2022/06/05 01:16:31;;;;;;;4.78;1.92;;;13.10;99.90;;;;;;4956007;28;20066;-74
2022/06/05 01:19:01;;;;;;;2.95;2.13;;;13.00;99.90;;;;;;4963255;28;20062;-75
2022/06/05 01:21:51;;;;;;;2.15;1.83;;;13.00;99.90;;;;;;4975646;28;20106;-73
2022/06/05 01:24:30;;;;;;;3.42;2.45;;;12.90;99.90;;;;;;5003722;28;20049;-73
2022/06/05 01:27:01;;;;;;;3.15;2.22;;;12.90;99.90;;;;;;4967725;28;20133;-73
2022/06/05 01:30:00;;;;;;;2.50;1.85;;;12.90;99.90;;;;;;4982635;28;20435;-73
2022/06/05 01:32:33;;;;;;;2.15;1.65;;;12.90;99.90;;;;;;4944231;28;20109;-73
2022/06/05 01:35:14;;;;;;;3.00;2.55;;;12.90;99.90;;;;;;4969146;28;20161;-73
2022/06/05 01:37:46;;;;;;;2.83;2.13;;;12.90;99.90;;;;;;4971717;28;20116;-73
2022/06/05 01:40:20;;;;;;;3.03;2.30;;;12.90;99.90;;;;;;4972277;28;20554;-73
2022/06/05 01:42:57;;;;;;;3.53;2.50;;;12.80;99.90;;;;;;4986660;28;20516;-73
2022/06/05 01:45:45;;;;;;;3.08;2.08;;;12.90;99.90;;;;;;4987318;28;20477;-73
2022/06/05 01:48:14;;;;;;;2.72;2.10;;;12.90;99.90;;;;;;4974667;28;20482;-74
2022/06/05 01:51:03;;;;;;;2.50;1.80;;;12.90;99.90;;;;;;4954652;28;20133;-72
2022/06/05 01:53:41;;;;;;;3.72;2.42;;;12.80;99.90;;;;;;4954790;28;20042;-72
2022/06/05 01:56:14;;;;;;;2.00;1.60;;;12.80;99.90;;;;;;4988932;28;20066;-73
2022/06/05 01:58:46;;;;;;;1.65;1.35;;;12.80;99.90;;;;;;4987908;28;20148;-74
2022/06/05 02:01:22;;;;;;;2.15;1.90;;;12.80;99.90;;;;;;4972222;28;20181;-73
2022/06/05 02:03:54;;;;;;;2.20;1.50;;;12.80;99.90;;;;;;4988207;28;20663;-73
2022/06/05 02:06:23;;;;;;;3.25;2.13;;;12.80;99.90;;;;;;4972410;28;20074;-73
2022/06/05 02:09:11;;;;;;;2.10;1.50;;;12.80;99.90;;;;;;4983994;28;20559;-73
2022/06/05 02:11:37;;;;;;;2.10;1.52;;;12.80;99.90;;;;;;4986714;28;20081;-73
2022/06/05 02:14:06;;;;;;;2.05;1.45;;;12.70;99.90;;;;;;4971100;28;20805;-73
2022/06/05 02:16:33;;;;;;;1.73;1.48;;;12.70;99.90;;;;;;4987871;28;20133;-73
2022/06/05 02:19:01;;;;;;;2.00;1.80;;;12.70;99.90;;;;;;4968281;28;20100;-73
2022/06/05 02:21:28;;;;;;;2.13;1.60;;;12.80;99.90;;;;;;4966955;28;20659;-74
2022/06/05 02:23:56;;;;;;;1.77;1.48;;;12.80;99.90;;;;;;4950138;28;20192;-74
2022/06/05 02:26:22;;;;;;;2.20;1.60;;;12.70;99.90;;;;;;4966636;28;20138;-73
2022/06/05 02:28:49;;;;;;;2.33;1.50;;;12.80;99.90;;;;;;4965495;28;20082;-74
2022/06/05 02:31:16;;;;;;;1.80;1.58;;;12.80;99.90;;;;;;4966545;28;20078;-74
2022/06/05 02:34:08;;;;;;;1.90;1.40;;;12.80;99.90;;;;;;4967309;28;20042;-74
2022/06/05 02:36:53;;;;;;;1.38;1.23;;;12.70;99.90;;;;;;4967636;28;20499;-74
2022/06/05 02:40:11;;;;;;;1.63;1.40;;;12.70;99.90;;;;;;4965031;28;20051;-73
2022/06/05 02:42:44;;;;;;;1.75;1.40;;;12.60;99.90;;;;;;4922175;28;20097;-73
2022/06/05 02:45:14;;;;;;;;;;;12.70;99.90;;;;;;4965305;28;20078;-72
2022/06/05 02:48:05;;;;;;;1.60;1.30;;;12.70;99.90;;;;;;4965806;28;19922;-73
2022/06/05 02:51:18;;;;;;;2.00;1.60;;;12.70;99.90;;;;;;4949966;28;20146;-73
2022/06/05 02:53:50;;;;;;;2.25;1.92;;;12.70;99.90;;;;;;4962992;28;20134;-73
2022/06/05 02:56:17;;;;;;;2.28;1.80;;;12.70;99.90;;;;;;4962068;28;20066;-72
2022/06/05 02:58:44;;;;;;;2.58;2.30;;;12.70;99.90;;;;;;4964597;28;20077;-72
2022/06/05 03:03:56;;;;;;;1.60;1.38;;;12.70;99.90;;;;;;4965326;28;20726;-74
2022/06/05 03:06:23;;;;;;;2.65;2.05;;;12.70;99.90;;;;;;4965822;28;20050;-74
2022/06/05 03:08:49;;;;;;;2.58;2.13;;;12.70;99.90;;;;;;4965750;28;20489;-73
2022/06/05 03:11:16;;;;;;;1.95;1.70;;;12.80;99.90;;;;;;4950061;28;20047;-73
2022/06/05 03:13:43;;;;;;;3.40;2.13;;;12.80;99.90;;;;;;4966519;28;20451;-73
2022/06/05 03:16:10;;;;;;;2.10;1.90;;;12.80;99.90;;;;;;4966730;28;20579;-72
2022/06/05 03:18:37;;;;;;;2.30;1.85;;;12.80;99.90;;;;;;4965564;28;20038;-74
2022/06/05 03:21:04;;;;;;;3.20;2.10;;;12.80;99.90;;;;;;4970630;28;20084;-72
2022/06/05 03:23:32;;;;;;;2.97;2.67;;;12.80;99.90;;;;;;4987084;28;20166;-73
2022/06/05 03:25:58;;;;;;;3.35;2.22;;;12.80;99.90;;;;;;4988026;28;20528;-73
2022/06/05 03:28:25;;;;;;;2.13;1.60;;;12.80;99.90;;;;;;4986599;28;20054;-73
2022/06/05 03:30:52;;;;;;;2.13;1.90;;;12.90;99.90;;;;;;4980659;28;20545;-73
2022/06/05 03:33:19;;;;;;;2.80;1.90;;;12.90;99.90;;;;;;4971804;28;20038;-73
2022/06/05 03:35:46;;;;;;;2.40;2.20;;;12.90;99.90;;;;;;4970675;28;20490;-73
2022/06/05 03:38:13;;;;;;;3.17;2.47;;;12.90;99.90;;;;;;4968651;28;20130;-72
2022/06/05 03:40:41;;;;;;;2.65;2.40;;;12.90;99.90;;;;;;4983790;28;20089;-73
2022/06/05 03:43:08;;;;;;;2.58;2.38;;;12.90;99.90;;;;;;4969730;28;20042;-72
2022/06/05 03:45:35;;;;;;;2.83;2.55;;;12.90;99.90;;;;;;4987082;28;20161;-72
2022/06/05 03:48:02;;;;;;;2.30;2.10;;;13.00;99.90;;;;;;4987055;28;20129;-73
2022/06/05 03:50:28;;;;;;;2.70;2.50;;;12.90;99.90;;;;;;4987135;28;20076;-73
2022/06/05 03:52:55;;;;;;;2.78;2.47;;;12.90;99.90;;;;;;4986446;28;20085;-73
2022/06/05 03:55:22;;;;;;;2.70;2.03;;;13.00;99.90;;;;;;5004399;28;20129;-73
2022/06/05 03:57:49;;;;;;;2.88;2.58;;;13.00;99.90;;;;;;4986526;28;20132;-73
2022/06/05 04:00:17;;;;;;;2.88;2.22;;;13.00;99.90;;;;;;4985375;28;20478;-72
2022/06/05 04:02:44;;;;;;;2.42;2.20;;;13.00;99.90;;;;;;4987072;28;20169;-73
2022/06/05 04:05:13;;;;;;;2.75;2.30;;;13.00;99.90;;;;;;5003700;28;20092;-72
2022/06/05 04:07:40;;;;;;;2.42;2.20;;;13.10;99.90;;;;;;4986377;28;20045;-73
2022/06/05 04:10:09;;;;;;;2.88;2.20;;;13.10;99.90;;;;;;4999038;28;20537;-72
2022/06/05 04:12:36;;;;;;;2.50;2.25;;;13.10;99.90;;;;;;4986336;28;20129;-73
2022/06/05 04:15:03;;;;;;;2.85;2.58;;;13.10;99.90;;;;;;5002837;28;20137;-72
2022/06/05 04:17:30;;;;;;;2.28;2.08;;;13.10;99.90;;;;;;5004005;28;20131;-72
2022/06/05 04:19:57;;;;;;;3.15;2.85;;;13.10;99.90;;;;;;4968025;28;20070;-72
2022/06/05 04:22:23;;;;;;;3.03;2.35;;;13.10;99.90;;;;;;4984982;28;20081;-72
2022/06/05 04:24:50;;;;;;;3.38;2.65;;;13.10;99.90;;;;;;4987285;28;20081;-73
2022/06/05 04:27:17;;;;;;;3.25;2.95;;;13.10;99.90;;;;;;4985717;28;20050;-72
2022/06/05 04:29:44;;;;;;;2.88;2.67;;;13.10;99.90;;;;;;4982394;28;20144;-73
2022/06/05 04:32:11;;;;;;;3.30;2.70;;;13.00;99.90;;;;;;4984361;28;20050;-72
2022/06/05 04:34:37;;;;;;;3.10;2.80;;;13.10;99.90;;;;;;4982877;28;20046;-72
2022/06/05 04:37:06;;;;;;;4.75;3.05;;;13.10;99.90;;;;;;4969695;28;20112;-73
2022/06/05 04:39:33;;;;;;;3.33;2.90;;;13.10;99.90;;;;;;4988233;28;20589;-73
2022/06/05 04:42:00;;;;;;;2.92;2.63;;;13.10;99.90;;;;;;4972077;28;20064;-73
2022/06/05 04:44:26;;;;;;;2.67;2.47;;;13.10;99.90;;;;;;5005028;28;20641;-73
2022/06/05 04:46:54;;;;;;;2.53;2.08;;;13.10;99.90;;;;;;5005399;28;20084;-73
2022/06/05 04:49:21;;;;;;;3.35;2.97;;;13.10;99.90;;;;;;4995819;28;20046;-73
2022/06/05 04:51:47;;;;;;;3.17;2.90;;;13.10;99.90;;;;;;4980087;28;20057;-73
2022/06/05 04:54:15;;;;;;;3.10;2.80;;;13.10;99.90;;;;;;4980028;28;20149;-73
2022/06/05 04:56:42;;;;;;;4.38;3.50;;;13.10;99.90;;;;;;4978580;28;20361;-73
2022/06/05 04:59:10;;;;;;;3.35;3.03;;;13.20;99.90;;;;;;4976906;28;20133;-73
2022/06/05 05:01:38;;;;;;;3.22;2.75;;;13.20;99.90;;;;;;4973735;28;20136;-72
2022/06/05 05:04:08;;;;;;;3.30;3.00;;;13.20;99.90;;;;;;4972618;28;20081;-73
2022/06/05 05:06:35;;;;;;;3.88;3.00;;;13.20;99.90;;;;;;4973312;28;20116;-73
2022/06/05 05:09:02;;;;;;;2.92;2.63;;;13.20;99.90;;;;;;4991921;28;20046;-72
2022/06/05 05:11:29;;;;;;;3.42;3.13;;;13.20;99.90;;;;;;4992686;28;20054;-71
2022/06/05 05:13:56;;;;;;;3.72;3.08;;;13.20;99.90;;;;;;4966038;28;20141;-72
2022/06/05 05:16:23;;;;;;;4.80;3.50;;;13.20;99.90;;;;;;4966514;28;20588;-72
2022/06/05 05:18:50;;;;;;;3.58;3.10;;;13.20;99.90;;;;;;4982334;28;20092;-73
2022/06/05 05:21:18;;;;;;;2.78;2.42;;;13.30;99.90;;;;;;4982184;28;20691;-72
2022/06/05 05:23:46;;;;;;;3.45;3.15;;;13.30;99.90;;;;;;4966504;28;20136;-72
2022/06/05 05:26:25;;;;;;;3.13;2.83;;;13.30;99.90;;;;;;4982693;28;20078;-72
2022/06/05 05:28:52;;;;;;;3.28;2.53;;;13.30;99.90;;;;;;4999151;28;20621;-72
2022/06/05 05:31:22;;;;;;;3.50;2.60;;;13.30;99.90;;;;;;4999941;28;20128;-72
2022/06/05 05:33:49;;;;;;;3.75;2.78;;;13.30;99.90;;;;;;4982590;28;20073;-73
2022/06/05 05:36:18;;;;;;;4.50;3.63;;;13.30;99.90;;;;;;4999895;28;20390;-72
2022/06/05 05:44:15;;;;;;;3.60;3.05;;;13.30;99.90;;;;;;4980960;28;20310;-73
2022/06/05 05:46:42;;;;;;;3.60;3.22;;;13.30;99.90;;;;;;4999017;28;20453;-73
2022/06/05 05:49:10;;;;;;;3.50;3.20;;;13.30;99.90;;;;;;4982096;28;20330;-73
2022/06/05 05:51:37;;;;;;;3.72;3.20;;;13.30;99.90;;;;;;4982217;28;20441;-73
2022/06/05 05:54:04;;;;;;;3.53;3.22;;;13.30;99.90;;;;;;4999777;28;20481;-72
2022/06/05 05:56:30;;;;;;;3.63;3.28;;;13.30;99.90;;;;;;4975496;28;20066;-70
2022/06/05 05:58:57;;;;;;;3.00;2.70;;;13.30;99.90;;;;;;4988465;28;20140;-73
2022/06/05 06:01:24;;;;;;;3.92;3.25;;;13.40;99.90;;;;;;4981809;28;20386;-73
2022/06/05 06:03:51;;;;;;;3.30;3.00;;;13.40;99.90;;;;;;4981831;28;20212;-73
2022/06/05 06:06:22;;;;;;;3.20;2.90;;;13.40;99.90;;;;;;4978997;28;20614;-72
2022/06/05 06:08:49;;;;;;;3.10;2.60;;;13.50;99.90;;;;;;4977879;28;20054;-73
2022/06/05 06:11:15;;;;;;;3.67;3.20;;;13.50;99.90;;;;;;4981422;28;20378;-72
2022/06/05 06:13:42;;;;;;;3.63;2.83;;;13.50;99.90;;;;;;4962706;28;20077;-72
2022/06/05 06:16:09;;;;;;;5.25;3.42;;;13.50;99.90;;;;;;4995682;28;20802;-73
2022/06/05 06:18:36;;;;;;;3.97;3.40;;;13.50;99.90;;;;;;4980516;28;20049;-72
2022/06/05 06:21:03;;;;;;;4.50;3.92;;;13.50;99.90;;;;;;4999277;28;20053;-72
2022/06/05 06:23:30;;;;;;;4.43;3.80;;;13.50;99.90;;;;;;4998910;28;20046;-72
2022/06/05 06:25:57;;;;;;;3.58;2.92;;;13.50;99.90;;;;;;4999323;28;20119;-72
2022/06/05 06:28:24;;;;;;;3.65;3.08;;;13.60;99.90;;;;;;4979927;28;20143;-72
2022/06/05 06:30:51;;;;;;;3.75;3.08;;;13.60;99.90;;;;;;4998255;28;20144;-72
2022/06/05 06:33:17;;;;;;;6.38;5.07;;;13.60;99.90;;;;;;4999377;28;20100;-71
2022/06/05 06:35:44;;;;;;;7.57;5.35;;;13.50;99.90;;;;;;4998571;28;20482;-71
2022/06/05 06:38:11;;;;;;;5.90;4.50;;;13.50;99.90;;;;;;4998033;28;20060;-72
2022/06/05 06:40:37;;;;;;;4.85;4.30;;;13.50;99.90;;;;;;4999402;28;20466;-72
2022/06/05 06:43:04;;;;;;;4.78;4.15;;;13.50;99.90;;;;;;4979584;28;20138;-71
2022/06/05 06:45:32;;;;;;;5.72;4.75;;;13.60;99.90;;;;;;4962327;28;20085;-72
2022/06/05 06:47:59;;;;;;;4.22;3.83;;;13.60;99.90;;;;;;4979480;28;20071;-72
2022/06/05 06:50:26;;;;;;;4.63;3.42;;;13.60;99.90;;;;;;4980311;28;20128;-72
2022/06/05 06:52:52;;;;;;;4.43;4.03;;;13.60;99.90;;;;;;4980848;28;20068;-72
2022/06/05 06:55:20;;;;;;;4.25;3.67;;;13.70;99.90;;;;;;4980457;28;20073;-72
2022/06/05 06:57:47;;;;;;;4.85;3.75;;;13.70;99.90;;;;;;4964725;28;20157;-72
2022/06/05 07:00:16;;;;;;;4.32;3.42;;;13.80;99.90;;;;;;4979785;28;20061;-72
2022/06/05 07:02:42;;;;;;;3.42;2.85;;;13.80;99.90;;;;;;4966659;28;20515;-72
2022/06/05 07:05:10;;;;;;;3.20;2.70;;;13.90;99.90;;;;;;4968590;28;20053;-73
2022/06/05 07:07:37;;;;;;;3.72;2.78;;;13.90;99.90;;;;;;4979665;28;20177;-73
2022/06/05 07:10:04;;;;;;;3.63;2.90;;;14.00;99.90;;;;;;4978178;28;20507;-73
2022/06/05 07:12:33;;;;;;;6.13;4.30;;;14.00;99.90;;;;;;4964334;28;20507;-73
2022/06/05 07:15:00;;;;;;;4.78;4.15;;;14.00;99.90;;;;;;4979606;28;20046;-73
2022/06/05 07:17:27;;;;;;;3.63;3.33;;;14.00;99.90;;;;;;4975453;28;20432;-73
2022/06/05 07:19:54;;;;;;;5.22;3.90;;;14.00;99.90;;;;;;4994472;28;20050;-72
2022/06/05 07:22:20;;;;;;;4.63;4.15;;;14.00;99.90;;;;;;4979185;28;20077;-73
2022/06/05 07:24:47;;;;;;;4.80;4.38;;;14.00;99.90;;;;;;4997161;28;20050;-72
2022/06/05 07:27:14;;;;;;;4.28;3.88;;;13.90;99.90;;;;;;4998291;28;20060;-73
2022/06/05 07:29:41;;;;;;;4.85;3.80;;;13.90;99.90;;;;;;4998692;28;20045;-73
2022/06/05 07:32:07;;;;;;;5.22;4.10;;;14.00;99.90;;;;;;4997667;28;20186;-73
2022/06/05 07:34:35;;;;;;;4.28;3.70;;;13.90;99.90;;;;;;4983986;28;20704;-72
2022/06/05 07:37:08;;;;;;;3.88;3.47;;;14.00;99.90;;;;;;4981502;28;20057;-73
2022/06/05 07:39:35;;;;;;;3.40;3.10;;;14.10;99.90;;;;;;4999018;28;20131;-73
2022/06/05 07:42:02;;;;;;;4.97;3.50;;;14.10;99.90;;;;;;4998898;28;20148;-72
2022/06/05 07:44:29;;;;;;;4.20;3.50;;;14.20;99.90;;;;;;4959515;28;20100;-72
2022/06/05 07:46:55;;;;;;;5.03;4.25;;;14.20;99.90;;;;;;4998036;28;20157;-72
2022/06/05 07:49:22;;;;;;;6.13;4.22;;;14.10;99.90;;;;;;4980731;28;20113;-72
2022/06/05 07:54:34;;;;;;;4.35;3.95;;;14.10;99.90;;;;;;4977990;28;20323;-73
2022/06/05 07:57:06;;;;;;;6.68;5.25;;;14.10;99.90;;;;;;4980237;28;20137;-72
2022/06/05 07:59:35;;;;;;;5.85;4.90;;;14.00;99.90;;;;;;4980733;28;20144;-72
2022/06/05 08:02:04;;;;;;;5.55;4.43;;;14.00;99.90;;;;;;4967221;28;20053;-72
2022/06/05 08:04:32;;;;;;;6.78;5.20;;;14.00;99.90;;;;;;4985210;28;20452;-72
2022/06/05 08:06:59;;;;;;;6.75;5.68;;;13.90;99.90;;;;;;4979904;28;20133;-72
2022/06/05 08:09:26;;;;;;;7.10;5.28;;;13.90;99.90;;;;;;4999037;28;20553;-72
2022/06/05 08:11:53;;;;;;;8.07;6.18;;;13.90;99.90;;;;;;4998365;28;20503;-72
2022/06/05 08:14:20;;;;;;;7.78;5.80;;;13.80;99.90;;;;;;4950656;28;20082;-72
2022/06/05 08:16:47;;;;;;;8.70;6.13;;;13.80;99.90;;;;;;4961577;28;20132;-72
2022/06/05 08:19:16;;;;;;;6.53;5.65;;;13.80;99.90;;;;;;4940913;28;20609;-72
2022/06/05 08:21:43;;;;;;;6.15;5.20;;;13.90;99.90;;;;;;4980822;28;20136;-72
2022/06/05 08:24:09;;;;;;;5.78;5.13;;;13.90;99.90;;;;;;4985151;28;20277;-72
2022/06/05 08:26:36;;;;;;;6.85;5.60;;;13.90;99.90;;;;;;4983628;28;20152;-72
2022/06/05 08:29:03;;;;;;;7.65;6.15;;;13.90;99.90;;;;;;4977184;28;20201;-73
2022/06/05 08:31:30;;;;;;;5.53;4.97;;;13.90;99.90;;;;;;4956573;28;20150;-72
2022/06/05 08:33:57;;;;;;;6.50;5.57;;;13.90;99.90;;;;;;4961000;28;20454;-73
2022/06/05 08:36:25;;;;;;;6.63;5.40;;;13.90;99.90;;;;;;4963628;28;20138;-72
2022/06/05 08:41:49;;;;;;;5.38;4.88;;;14.00;99.90;;;;;;4982453;28;20078;-72
2022/06/05 08:44:34;;;;;;;4.78;4.28;;;14.00;99.90;;;;;;4979970;28;20546;-72
2022/06/05 08:47:15;;;;;;;9.77;6.57;;;14.00;99.90;;;;;;4968885;28;20156;-72
2022/06/05 08:50:19;;;;;;;9.40;6.47;;;13.90;99.90;;;;;;4979875;28;20089;-72
2022/06/05 08:52:50;;;;;;;8.30;7.50;;;13.90;99.90;;;;;;4977783;28;20066;-72
2022/06/05 08:55:28;;;;;;;7.72;6.05;;;13.80;99.90;;;;;;4968381;28;20144;-72
2022/06/05 08:57:57;;;;;;;7.38;6.68;;;13.80;99.90;;;;;;4989068;28;20362;-72
2022/06/05 09:00:26;;;;;;;6.45;5.85;;;13.70;99.90;;;;;;4958311;28;20050;-72
2022/06/05 09:03:19;;;;;;;9.35;7.75;;;13.70;99.90;;;;;;4969288;28;20354;-72
2022/06/05 09:05:47;;;;;;;7.22;6.05;;;13.70;99.90;;;;;;4980587;28;20046;-72
2022/06/05 09:08:24;;;;;;;7.82;7.05;;;13.70;99.90;;;;;;4976993;28;20057;-72
2022/06/05 09:11:16;;;;;;;8.15;7.35;;;13.70;99.90;;;;;;4978643;28;20089;-72
2022/06/05 09:13:50;;;;;;;7.15;6.45;;;13.60;99.90;;;;;;4972916;28;20171;-72
2022/06/05 09:16:29;;;;;;;6.65;6.05;;;13.60;99.90;;;;;;4980715;28;20061;-72
2022/06/05 09:18:56;;;;;;;6.72;6.03;;;13.60;99.90;;;;;;4978717;28;20138;-72
2022/06/05 09:21:45;;;;;;;11.00;6.82;;;13.60;99.90;;;;;;4964012;28;20093;-72
2022/06/05 09:24:20;;;;;;;7.45;5.90;;;13.60;99.90;;;;;;4978237;28;20446;-72
2022/06/05 09:26:59;;;;;;;5.95;5.40;;;13.60;99.90;;;;;;4968777;28;20061;-72
2022/06/05 09:29:54;;;;;;;6.50;5.90;;;13.70;99.90;;;;;;4980843;28;20265;-71
2022/06/05 09:32:46;;;;;;;7.05;6.43;;;13.80;99.90;;;;;;4986744;28;20046;-71
2022/06/05 09:35:18;;;;;;;6.05;5.38;;;13.80;99.90;;;;;;5003783;28;20084;-72
2022/06/05 09:37:52;;;;;;;6.65;5.85;;;13.80;99.90;;;;;;5003647;28;20461;-72
2022/06/05 09:40:38;;;;;;;5.47;4.93;;;13.90;99.90;;;;;;4970231;28;20152;-72
2022/06/05 09:43:08;;;;;;;6.00;5.50;;;14.00;99.90;;;;;;4964790;28;20050;-72
2022/06/05 09:45:56;;;;;;;6.38;5.57;;;14.10;99.90;;;;;;4998864;28;20054;-72
2022/06/05 09:48:47;;;;;;;7.63;5.80;;;14.20;99.90;;;;;;4994674;28;20189;-72
2022/06/05 09:51:15;;;;;;;6.13;5.57;;;14.20;99.90;;;;;;4996774;28;20073;-72
2022/06/05 09:53:45;;;;;;;5.93;5.32;;;14.30;99.90;;;;;;4968856;28;20107;-72
2022/06/05 09:56:31;;;;;;;5.40;4.85;;;14.40;99.90;;;;;;4981452;28;20050;-72
2022/06/05 09:59:28;;;;;;;5.50;4.95;;;14.60;99.90;;;;;;4998245;28;20054;-72
2022/06/05 10:01:56;;;;;;;4.80;4.38;;;14.70;99.90;;;;;;4958619;28;20065;-72
2022/06/05 10:04:26;;;;;;;4.82;4.38;;;14.80;99.90;;;;;;4939515;28;20454;-72
2022/06/05 10:07:33;;;;;;;5.25;4.63;;;15.10;99.90;;;;;;4966035;28;20381;-72
2022/06/05 10:10:15;;;;;;;6.25;5.65;;;15.10;99.90;;;;;;4967087;28;20313;-72
2022/06/05 10:12:56;;;;;;;6.28;5.70;;;15.10;99.90;;;;;;4962238;28;20515;-72
2022/06/05 10:15:28;;;;;;;5.80;5.20;;;15.00;99.90;;;;;;4965037;28;20326;-72
2022/06/05 10:18:01;;;;;;;8.40;7.00;;;15.00;99.90;;;;;;4969836;28;20058;-72
2022/06/05 10:20:39;;;;;;;8.07;6.55;;;14.90;99.90;;;;;;4977437;28;20573;-72
2022/06/05 10:23:25;;;;;;;7.20;6.43;;;14.80;99.90;;;;;;4975764;28;20087;-71
2022/06/05 10:25:57;;;;;;;6.80;6.18;;;14.70;99.90;;;;;;4982056;28;20058;-72
2022/06/05 10:28:31;;;;;;;5.95;5.13;;;14.80;99.90;;;;;;4969623;28;20207;-71
2022/06/05 10:30:59;;;;;;;6.10;5.00;;;15.00;99.90;;;;;;4961332;28;21456;-72
2022/06/05 10:33:39;;;;;;;4.50;3.90;;;15.10;99.90;;;;;;4992269;28;20084;-71
2022/06/05 10:36:38;;;;;;;4.10;3.70;;;15.30;99.90;;;;;;4989031;28;20289;-71
2022/06/05 10:39:14;;;;;;;5.18;4.25;;;15.30;99.90;;;;;;4975106;28;20140;-71
2022/06/05 10:41:54;;;;;;;3.78;3.38;;;15.30;99.90;;;;;;4976772;28;20073;-72
2022/06/05 10:44:21;;;;;;;4.18;3.78;;;15.30;99.90;;;;;;4991389;28;20768;-72
2022/06/05 10:47:05;;;;;;;4.13;3.72;;;15.40;99.90;;;;;;4973430;28;20060;-72
2022/06/05 10:49:40;;;;;;;4.97;4.38;;;15.50;99.90;;;;;;4954265;28;20057;-72
2022/06/05 10:52:16;;;;;;;4.80;4.30;;;15.50;99.90;;;;;;4994563;28;20050;-72
2022/06/05 10:54:53;;;;;;;5.72;5.20;;;15.40;99.90;;;;;;4965755;28;20725;-72
2022/06/05 10:57:26;;;;;;;6.25;5.60;;;15.30;99.90;;;;;;4986554;28;20133;-72
2022/06/05 11:00:17;;;;;;;5.55;5.05;;;15.30;99.90;;;;;;4975756;28;20144;-72
2022/06/05 11:03:25;;;;;;;5.05;3.70;;;15.40;99.90;;;;;;4958589;28;20452;-72
2022/06/05 11:06:24;;;;;;;5.70;4.70;;;15.60;99.90;;;;;;4961084;28;20046;-72
2022/06/05 11:08:56;;;;;;;4.55;4.15;;;15.50;99.90;;;;;;4977512;28;20118;-72
2022/06/05 11:14:40;;;;;;;7.50;6.25;;;15.70;99.90;;;;;;4972349;28;20137;-72
2022/06/05 11:18:02;;;;;;;5.30;4.82;;;15.40;99.90;;;;;;4960321;28;20121;-72
2022/06/05 11:20:29;;;;;;;6.97;5.82;;;15.50;99.90;;;;;;4879971;29;20064;-72
2022/06/05 11:23:03;;;;;;;6.13;5.53;;;15.40;99.90;;;;;;4925431;28;20509;-72
2022/06/05 11:25:43;;;;;;;7.35;6.57;;;15.40;99.90;;;;;;4961171;28;20142;-72
2022/06/05 11:28:31;;;;;;;6.93;6.30;;;15.40;99.90;;;;;;4961081;28;20120;-71
2022/06/05 11:31:24;;;;;;;8.75;7.10;;;15.30;99.90;;;;;;4981202;28;20161;-72
2022/06/05 11:34:02;;;;;;;10.23;7.72;;;15.20;99.90;;;;;;4974015;28;20053;-72
2022/06/05 11:36:44;;;;;;;7.00;6.32;;;15.20;99.90;;;;;;4974128;28;20052;-71
2022/06/05 11:39:37;;;;;;;8.45;7.55;;;15.30;99.90;;;;;;4962059;28;20196;-72
2022/06/05 11:42:39;;;;;;;;;;;15.30;99.90;;;;;;4961601;28;20100;-71
2022/06/05 11:45:28;;;;;;;6.38;5.75;;;15.30;99.90;;;;;;4914229;29;20044;-72
2022/06/05 11:48:02;;;;;;;6.63;5.82;;;15.50;99.90;;;;;;4971756;28;20132;-74
2022/06/05 11:50:34;;;;;;;5.30;4.80;;;15.50;99.90;;;;;;4959041;28;20124;-74
2022/06/05 11:53:21;;;;;;;5.30;4.80;;;15.70;99.90;;;;;;4954117;28;20141;-72
2022/06/05 11:55:58;;;;;;;5.90;5.13;;;15.80;99.90;;;;;;4962177;28;20520;-74
2022/06/05 11:58:28;;;;;;;6.43;5.68;;;15.80;99.90;;;;;;4976366;28;20088;-73
2022/06/05 12:01:02;;;;;;;6.55;5.95;;;15.80;99.90;;;;;;4972771;28;20078;-72
2022/06/05 12:03:54;;;;;;;8.85;7.80;;;15.70;99.90;;;;;;4973697;28;20509;-73
2022/06/05 12:06:49;;;;;;;9.63;8.52;;;15.60;99.90;;;;;;4969498;28;20125;-73
2022/06/05 12:09:28;;;;;;;8.82;7.93;;;15.40;99.90;;;;;;4983384;28;20909;-72
2022/06/05 12:12:17;;;;;;;9.07;8.18;;;15.50;99.90;;;;;;4972540;28;20073;-72
2022/06/05 12:14:51;;;;;;;7.85;7.07;;;15.50;99.90;;;;;;4974171;28;20566;-72
2022/06/05 12:17:42;;;;;;;6.97;6.18;;;15.60;99.90;;;;;;4941648;28;20127;-72
2022/06/05 12:20:10;;;;;;;6.20;5.60;;;15.70;99.90;;;;;;4950988;28;20054;-73
2022/06/05 12:22:39;;;;;;;5.95;5.38;;;15.80;99.90;;;;;;4977515;28;20212;-72
2022/06/05 12:25:21;;;;;;;7.07;6.40;;;16.00;99.90;;;;;;4971605;28;20462;-72
2022/06/05 12:28:10;;;;;;;9.38;8.48;;;16.00;99.90;;;;;;4976106;28;20117;-72
2022/06/05 12:30:40;;;;;;;9.60;8.60;;;15.90;99.90;;;;;;4976233;28;20065;-72
2022/06/05 12:33:25;;;;;;;8.68;7.70;;;15.90;99.90;;;;;;4962730;28;20129;-72
2022/06/05 12:35:54;;;;;;;7.82;7.13;;;16.00;99.90;;;;;;4992230;28;20090;-71
2022/06/05 12:38:30;;;;;;;6.93;6.28;;;16.20;99.90;;;;;;4967746;28;20061;-72
2022/06/05 12:41:20;;;;;;;8.45;7.55;;;16.30;99.90;;;;;;4987828;28;20534;-72
2022/06/05 12:44:11;;;;;;;8.60;7.80;;;16.20;99.90;;;;;;4972426;28;20710;-72
2022/06/05 12:47:21;;;;;;;9.10;8.25;;;16.10;99.90;;;;;;4973199;28;20058;-71
2022/06/05 12:49:56;;;;;;;12.15;10.98;;;16.10;99.90;;;;;;4974704;28;20057;-72
2022/06/05 12:52:49;;;;;;;10.82;9.82;;;16.00;99.90;;;;;;4990602;28;20429;-71
2022/06/05 12:55:29;;;;;;;8.63;7.82;;;16.20;99.90;;;;;;4957722;28;20054;-71
2022/06/05 12:58:17;;;;;;;7.97;7.28;;;16.40;99.90;;;;;;4994035;28;20426;-72
2022/06/05 13:01:02;;;;;;;7.28;6.57;;;16.60;99.90;;;;;;4980361;28;20101;-71
2022/06/05 13:04:02;;;;;;;7.65;6.88;;;16.60;99.90;;;;;;4966333;28;20054;-71
2022/06/05 13:06:32;;;;;;;7.45;6.80;;;16.60;99.90;;;;;;4976461;28;20049;-71
2022/06/05 13:09:16;;;;;;;7.25;6.55;;;16.50;99.90;;;;;;4990491;28;20137;-72
2022/06/05 13:11:49;;;;;;;7.35;6.53;;;16.40;99.90;;;;;;4991681;28;20050;-71
2022/06/05 13:14:28;;;;;;;7.65;6.95;;;16.50;99.90;;;;;;4961760;28;20137;-72
2022/06/05 13:17:25;;;;;;;7.32;6.60;;;16.50;99.90;;;;;;4991989;28;20072;-71
2022/06/05 13:19:53;;;;;;;8.02;7.32;;;16.40;99.90;;;;;;4963031;28;20132;-72
2022/06/05 13:22:32;;;;;;;8.45;7.68;;;16.40;99.90;;;;;;4956251;28;20403;-72
2022/06/05 13:25:23;;;;;;;8.30;7.50;;;16.30;99.90;;;;;;4932818;28;20470;-72
2022/06/05 13:28:08;;;;;;;9.32;8.43;;;16.20;99.90;;;;;;4936789;28;20176;-73
2022/06/05 13:30:49;;;;;;;8.73;7.90;;;16.10;99.90;;;;;;4957475;28;20557;-72
2022/06/05 13:33:55;;;;;;;7.25;6.63;;;16.10;99.90;;;;;;4939293;28;20101;-72
2022/06/05 13:36:33;;;;;;;6.13;5.63;;;16.10;99.90;;;;;;4943038;28;20383;-72
2022/06/05 13:39:22;;;;;;;8.27;7.47;;;16.10;99.90;;;;;;4924048;29;20226;-73
2022/06/05 13:42:04;;;;;;;8.73;7.93;;;16.00;99.90;;;;;;4942130;28;20242;-72